Time;durP1;ratioP1;P1;durP2;ratioP2;P2;SDS_P1;SDS_P2;PMS_P1;PMS_P2;Temp;Humidity;BMP_temperature;BMP_pressure;BME280_temperature;BME280_humidity;BME280_pressure;Samples;Min_cycle;Max_cycle;Signal;HPM_P1;HPM_P2
2023/04/05 00:02:23;;;;;;;;;;;-1.45;107.03;;;;;;2672016;76;20441;-90
2023/04/05 00:05:53;;;;;;;;;;;-1.48;107.05;;;;;;2672366;76;20842;-89
2023/04/05 00:09:21;;;;;;;;;;;-1.53;107.08;;;;;;2671869;76;20497;-89
2023/04/05 00:12:50;;;;;;;;;;;-1.53;107.20;;;;;;2671916;76;21018;-90
2023/04/05 00:16:19;;;;;;;;;;;-1.55;107.25;;;;;;2671936;76;20515;-89
2023/04/05 00:19:56;;;;;;;;;;;-1.57;107.33;;;;;;2672483;76;20487;-89
2023/04/05 00:23:17;;;;;;;;;;;-1.56;107.33;;;;;;2671887;76;20947;-88
2023/04/05 00:26:45;;;;;;;;;;;-1.57;107.35;;;;;;2671863;76;20513;-89
2023/04/05 00:30:19;;;;;;;;;;;-1.56;107.40;;;;;;2671542;76;20345;-89
2023/04/05 00:33:53;;;;;;;;;;;-1.61;107.42;;;;;;2671779;76;20497;-89
2023/04/05 00:37:21;;;;;;;;;;;-1.64;107.59;;;;;;2672213;76;20342;-89
2023/04/05 00:40:50;;;;;;;;;;;-1.59;107.72;;;;;;2671097;76;20335;-89
2023/04/05 00:44:21;;;;;;;;;;;-1.60;107.82;;;;;;2671916;76;20485;-89
2023/04/05 00:47:52;;;;;;;;;;;-1.61;107.78;;;;;;2672201;76;20447;-89
2023/04/05 00:51:20;;;;;;;;;;;-1.67;107.81;;;;;;2671621;76;20326;-89
2023/04/05 00:54:48;;;;;;;;;;;-1.70;108.19;;;;;;2672063;76;20421;-89
2023/04/05 00:58:32;;;;;;;;;;;-1.68;108.31;;;;;;2671907;76;20341;-89
2023/04/05 01:01:53;;;;;;;;;;;-1.69;108.43;;;;;;2671147;76;20799;-89
2023/04/05 01:05:16;;;;;;;;;;;-1.67;108.45;;;;;;2671428;76;20502;-90
2023/04/05 01:08:45;;;;;;;;;;;-1.65;108.51;;;;;;2671471;76;20437;-89
2023/04/05 01:12:13;;;;;;;;;;;-1.63;108.70;;;;;;2671113;76;20450;-89
2023/04/05 01:15:42;;;;;;;;;;;-1.60;108.79;;;;;;2672047;76;20906;-89
2023/04/05 01:19:12;;;;;;;;;;;-1.58;108.84;;;;;;2672154;76;20937;-90
2023/04/05 01:22:51;;;;;;;;;;;-1.59;108.75;;;;;;2671819;76;20333;-89
2023/04/05 01:26:20;;;;;;;;;;;-1.53;108.88;;;;;;2671306;76;20572;-89
2023/04/05 01:29:48;;;;;;;;;;;-1.47;109.01;;;;;;2671122;76;20942;-89
2023/04/05 01:33:16;;;;;;;;;;;-1.45;109.04;;;;;;2671882;76;20467;-89
2023/04/05 01:36:44;;;;;;;;;;;-1.42;109.19;;;;;;2671579;76;20463;-89
2023/04/05 01:40:12;;;;;;;;;;;-1.41;109.25;;;;;;2671865;76;20482;-89
2023/04/05 01:43:40;;;;;;;;;;;-1.39;109.40;;;;;;2671469;76;20457;-89
2023/04/05 01:47:09;;;;;;;;;;;-1.36;109.45;;;;;;2671526;76;20501;-89
2023/04/05 01:50:39;;;;;;;;;;;-1.33;109.47;;;;;;2671736;76;20668;-89
2023/04/05 01:54:07;;;;;;;;;;;-1.32;109.49;;;;;;2672759;76;20907;-89
2023/04/05 01:57:36;;;;;;;;;;;-1.28;109.56;;;;;;2671777;76;20456;-90
2023/04/05 02:01:04;;;;;;;;;;;-1.31;109.74;;;;;;2672593;76;20423;-90
2023/04/05 02:04:32;;;;;;;;;;;-1.28;109.82;;;;;;2671869;76;20354;-90
2023/04/05 02:08:00;;;;;;;;;;;-1.26;109.88;;;;;;2672154;76;20521;-90
2023/04/05 02:11:28;;;;;;;;;;;-1.20;109.95;;;;;;2673012;76;20461;-90
2023/04/05 02:14:57;;;;;;;;;;;-1.21;109.97;;;;;;2672351;76;20427;-90
2023/04/05 02:18:30;;;;;;;;;;;-1.18;110.04;;;;;;2672414;76;20331;-90
2023/04/05 02:21:55;;;;;;;;;;;-1.15;110.13;;;;;;2673026;76;20341;-90
2023/04/05 02:25:23;;;;;;;;;;;-1.14;110.20;;;;;;2672881;76;20918;-90
2023/04/05 02:28:57;;;;;;;;;;;-1.13;110.29;;;;;;2672053;76;20804;-89
2023/04/05 02:32:21;;;;;;;;;;;-1.13;110.39;;;;;;2672839;76;20913;-89
2023/04/05 02:35:50;;;;;;;;;;;-1.12;110.42;;;;;;2672570;76;20368;-90
2023/04/05 02:39:19;;;;;;;;;;;-1.12;110.43;;;;;;2672224;76;20464;-89
2023/04/05 02:42:47;;;;;;;;;;;-1.14;110.46;;;;;;2672749;76;20479;-90
2023/04/05 02:46:15;;;;;;;;;;;-1.17;110.46;;;;;;2673296;76;20464;-89
2023/04/05 02:49:43;;;;;;;;;;;-1.21;110.44;;;;;;2672464;76;20464;-90
2023/04/05 02:53:11;;;;;;;;;;;-1.21;110.49;;;;;;2673005;76;20453;-90
2023/04/05 02:56:40;;;;;;;;;;;-1.29;110.52;;;;;;2672527;76;20510;-88
2023/04/05 03:00:09;;;;;;;;;;;-1.32;110.66;;;;;;2672780;76;20470;-90
2023/04/05 03:07:17;;;;;;;;;;;-1.35;110.67;;;;;;2671941;76;20409;-90
2023/04/05 03:10:45;;;;;;;;;;;-1.39;110.71;;;;;;2670954;76;20448;-90
2023/04/05 03:14:13;;;;;;;;;;;-1.40;110.79;;;;;;2672532;76;20315;-90
2023/04/05 03:17:43;;;;;;;;;;;-1.39;110.83;;;;;;2672146;76;20420;-90
2023/04/05 03:21:16;;;;;;;;;;;-1.39;111.04;;;;;;2672850;76;20441;-90
2023/04/05 03:24:43;;;;;;;;;;;-1.34;111.18;;;;;;2672663;76;20464;-90
2023/04/05 03:28:11;;;;;;;;;;;-1.30;111.22;;;;;;2672155;76;20413;-90
2023/04/05 03:31:39;;;;;;;;;;;-1.30;111.17;;;;;;2672634;76;20453;-90
2023/04/05 03:35:07;;;;;;;;;;;-1.29;111.10;;;;;;2672632;76;20441;-90
2023/04/05 03:38:36;;;;;;;;;;;-1.28;111.15;;;;;;2672424;76;20321;-90
2023/04/05 03:42:04;;;;;;;;;;;-1.34;111.13;;;;;;2673223;76;20331;-90
2023/04/05 03:45:33;;;;;;;;;;;-1.34;111.29;;;;;;2672852;76;20788;-90
2023/04/05 03:49:01;;;;;;;;;;;-1.34;111.25;;;;;;2672630;76;20663;-90
2023/04/05 03:52:29;;;;;;;;;;;-1.41;111.15;;;;;;2673051;76;20366;-90
2023/04/05 03:55:57;;;;;;;;;;;-1.45;111.03;;;;;;2673115;76;20952;-90
2023/04/05 03:59:25;;;;;;;;;;;-1.50;110.94;;;;;;2672886;76;20447;-90
2023/04/05 04:02:54;;;;;;;;;;;-1.58;110.92;;;;;;2672925;76;20323;-90
2023/04/05 04:06:25;;;;;;;;;;;-1.63;110.93;;;;;;2672892;76;20457;-90
2023/04/05 04:09:54;;;;;;;;;;;-1.72;110.88;;;;;;2672528;76;20362;-90
2023/04/05 04:13:21;;;;;;;;;;;-1.78;111.06;;;;;;2672216;76;20444;-90
2023/04/05 04:16:49;;;;;;;;;;;-1.82;111.15;;;;;;2672703;76;20446;-90
2023/04/05 04:20:17;;;;;;;;;;;-1.87;111.05;;;;;;2672247;76;20743;-90
2023/04/05 04:23:46;;;;;;;;;;;-1.88;111.00;;;;;;2672716;76;20781;-90
2023/04/05 04:27:15;;;;;;;;;;;-1.94;111.00;;;;;;2672714;76;20419;-90
2023/04/05 04:30:43;;;;;;;;;;;-1.94;111.07;;;;;;2672543;76;20448;-90
2023/04/05 04:34:12;;;;;;;;;;;-2.02;111.14;;;;;;2672708;76;20449;-90
2023/04/05 04:37:45;;;;;;;;;;;-2.03;111.29;;;;;;2672801;76;20499;-90
2023/04/05 04:41:10;;;;;;;;;;;-2.02;111.32;;;;;;2672597;76;20458;-90
2023/04/05 04:44:41;;;;;;;;;;;-2.00;111.27;;;;;;2672468;76;20428;-90
2023/04/05 04:48:08;;;;;;;;;;;-1.99;111.20;;;;;;2672373;76;20448;-90
2023/04/05 04:51:36;;;;;;;;;;;-2.00;111.20;;;;;;2671748;76;20437;-90
2023/04/05 04:55:04;;;;;;;;;;;-1.95;111.31;;;;;;2671031;76;20461;-90
2023/04/05 05:02:11;;;;;;;;;;;-1.89;111.42;;;;;;2670616;76;20434;-89
2023/04/05 05:05:39;;;;;;;;;;;-1.82;111.61;;;;;;2669897;76;20426;-90
2023/04/05 05:09:07;;;;;;;;;;;-1.73;111.65;;;;;;2669611;76;20904;-90
2023/04/05 05:12:35;;;;;;;;;;;-1.64;111.77;;;;;;2668783;76;20430;-90
2023/04/05 05:16:04;;;;;;;;;;;-1.43;111.84;;;;;;2668561;76;20961;-90
2023/04/05 05:19:32;;;;;;;;;;;-1.38;111.80;;;;;;2670063;76;20406;-90
2023/04/05 05:23:02;;;;;;;;;;;-1.33;112.33;;;;;;2669218;76;20403;-90
2023/04/05 05:26:30;;;;;;;;;;;-1.24;112.83;;;;;;2669481;76;20436;-89
2023/04/05 05:29:58;;;;;;;;;;;-1.14;112.95;;;;;;2670355;76;20421;-89
2023/04/05 05:33:26;;;;;;;;;;;-1.05;113.44;;;;;;2669817;76;20445;-90
2023/04/05 05:36:55;;;;;;;;;;;-0.88;114.42;;;;;;2670019;76;20457;-89
2023/04/05 05:40:25;;;;;;;;;;;-0.72;114.41;;;;;;2669054;76;20431;-90
2023/04/05 05:43:53;;;;;;;;;;;-0.58;114.54;;;;;;2668611;76;20458;-91
2023/04/05 05:47:21;;;;;;;;;;;-0.43;115.16;;;;;;2669714;76;20848;-90
2023/04/05 05:50:49;;;;;;;;;;;-0.27;115.20;;;;;;2668257;76;20458;-90
2023/04/05 05:54:17;;;;;;;;;;;-0.15;115.31;;;;;;2669061;76;20405;-90
2023/04/05 05:57:46;;;;;;;;;;;-0.02;115.77;;;;;;2668824;76;20428;-91
2023/04/05 06:01:14;;;;;;;;;;;0.13;115.94;;;;;;2669518;76;20329;-93
2023/04/05 06:04:42;;;;;;;;;;;0.17;116.54;;;;;;2670468;76;20457;-91
2023/04/05 06:08:10;;;;;;;;;;;0.37;116.73;;;;;;2670603;76;20432;-91
2023/04/05 06:11:39;;;;;;;;;;;0.49;116.62;;;;;;2670046;76;20316;-90
2023/04/05 06:15:07;;;;;;;;;;;0.67;116.58;;;;;;2670299;76;20305;-91
2023/04/05 06:18:35;;;;;;;;;;;0.71;116.53;;;;;;2670808;76;20449;-90
2023/04/05 06:22:03;;;;;;;;;;;0.83;116.70;;;;;;2670257;76;20353;-90
2023/04/05 06:25:31;;;;;;;;;;;0.87;116.67;;;;;;2669730;76;20469;-90
2023/04/05 06:28:59;;;;;;;;;;;0.99;116.71;;;;;;2670432;76;20469;-90
2023/04/05 06:32:27;;;;;;;;;;;1.07;116.67;;;;;;2670673;76;20432;-90
2023/04/05 06:35:55;;;;;;;;;;;1.14;116.60;;;;;;2670624;76;20483;-90
2023/04/05 06:39:24;;;;;;;;;;;1.26;116.63;;;;;;2670703;76;20300;-90
2023/04/05 06:42:52;;;;;;;;;;;1.36;116.59;;;;;;2670574;76;20953;-90
2023/04/05 06:46:20;;;;;;;;;;;1.48;116.44;;;;;;2671100;76;20933;-90
2023/04/05 06:49:48;;;;;;;;;;;1.61;116.31;;;;;;2670888;76;20971;-90
2023/04/05 06:53:18;;;;;;;;;;;1.63;116.15;;;;;;2670678;76;20904;-90
2023/04/05 06:56:46;;;;;;;;;;;1.78;115.87;;;;;;2670528;76;20417;-90
2023/04/05 07:00:16;;;;;;;;;;;1.88;115.24;;;;;;2671069;76;20436;-90
2023/04/05 07:03:44;;;;;;;;;;;1.98;114.76;;;;;;2671111;76;20452;-90
2023/04/05 07:07:12;;;;;;;;;;;2.11;114.37;;;;;;2670793;76;20477;-90
2023/04/05 07:10:40;;;;;;;;;;;2.12;113.92;;;;;;2670378;76;20472;-90
2023/04/05 07:14:08;;;;;;;;;;;2.22;113.71;;;;;;2670908;76;20484;-90
2023/04/05 07:17:36;;;;;;;;;;;2.34;113.14;;;;;;2670547;76;20445;-90
2023/04/05 07:21:04;;;;;;;;;;;2.45;112.97;;;;;;2670252;76;20465;-90
2023/04/05 07:24:32;;;;;;;;;;;2.54;112.58;;;;;;2670303;76;20445;-90
2023/04/05 07:28:01;;;;;;;;;;;2.67;112.23;;;;;;2670088;76;20434;-90
2023/04/05 07:31:32;;;;;;;;;;;2.84;111.87;;;;;;2670703;76;20463;-90
2023/04/05 07:35:00;;;;;;;;;;;2.93;111.50;;;;;;2669788;76;20419;-90
2023/04/05 07:38:29;;;;;;;;;;;2.99;111.12;;;;;;2669953;76;20452;-90
2023/04/05 07:42:05;;;;;;;;;;;3.06;110.40;;;;;;2670225;76;20475;-90
2023/04/05 07:45:32;;;;;;;;;;;3.09;109.83;;;;;;2670186;76;20444;-91
2023/04/05 07:49:00;;;;;;;;;;;3.15;109.12;;;;;;2670250;76;20783;-90
2023/04/05 07:52:29;;;;;;;;;;;3.30;109.10;;;;;;2670477;76;20779;-90
2023/04/05 07:55:58;;;;;;;;;;;3.31;108.60;;;;;;2670358;76;20428;-88
2023/04/05 07:59:26;;;;;;;;;;;3.38;107.92;;;;;;2670394;76;20424;-88
2023/04/05 08:02:54;;;;;;;;;;;3.54;107.18;;;;;;2670578;76;20421;-90
2023/04/05 08:06:23;;;;;;;;;;;3.64;106.98;;;;;;2670624;76;20444;-90
2023/04/05 08:09:52;;;;;;;;;;;3.75;106.90;;;;;;2670260;76;20465;-90
2023/04/05 08:13:20;;;;;;;;;;;3.78;106.48;;;;;;2670765;76;20711;-90
2023/04/05 08:16:50;;;;;;;;;;;3.87;105.83;;;;;;2670742;76;20447;-91
2023/04/05 08:20:18;;;;;;;;;;;3.83;105.87;;;;;;2669868;76;20473;-90
2023/04/05 08:23:46;;;;;;;;;;;3.92;106.08;;;;;;2670308;76;20356;-91
2023/04/05 08:27:14;;;;;;;;;;;3.94;105.38;;;;;;2669944;76;20314;-90
2023/04/05 08:30:42;;;;;;;;;;;4.02;104.76;;;;;;2670470;76;20303;-90
2023/04/05 08:34:11;;;;;;;;;;;4.19;104.75;;;;;;2670515;76;20321;-90
2023/04/05 08:37:39;;;;;;;;;;;4.26;104.64;;;;;;2670380;76;20386;-90
2023/04/05 08:41:07;;;;;;;;;;;4.30;104.92;;;;;;2670688;76;20941;-90
2023/04/05 08:44:35;;;;;;;;;;;4.37;105.39;;;;;;2670492;76;21031;-90
2023/04/05 08:48:03;;;;;;;;;;;4.39;105.51;;;;;;2670164;76;20450;-90
2023/04/05 08:51:32;;;;;;;;;;;4.47;105.66;;;;;;2670196;76;20442;-90
2023/04/05 08:55:05;;;;;;;;;;;4.45;105.24;;;;;;2670166;76;20417;-90
2023/04/05 08:58:38;;;;;;;;;;;4.56;104.97;;;;;;2670433;76;20448;-90
2023/04/05 09:02:05;;;;;;;;;;;4.67;105.21;;;;;;2670587;76;20448;-91
2023/04/05 09:05:38;;;;;;;;;;;4.67;105.18;;;;;;2670104;76;20427;-90
2023/04/05 09:09:03;;;;;;;;;;;4.61;104.83;;;;;;2671023;76;20448;-90
2023/04/05 09:12:31;;;;;;;;;;;4.59;104.07;;;;;;2670538;76;20452;-90
2023/04/05 09:16:00;;;;;;;;;;;4.72;103.22;;;;;;2670302;76;20416;-90
2023/04/05 09:19:28;;;;;;;;;;;4.84;102.98;;;;;;2670479;76;20404;-90
2023/04/05 09:22:56;;;;;;;;;;;4.92;102.15;;;;;;2670644;76;20431;-90
2023/04/05 09:26:24;;;;;;;;;;;4.97;101.84;;;;;;2670624;76;20543;-90
2023/04/05 09:29:53;;;;;;;;;;;5.06;102.25;;;;;;2671221;76;20574;-91
2023/04/05 09:33:21;;;;;;;;;;;4.86;100.58;;;;;;2670393;76;20447;-90
2023/04/05 09:36:49;;;;;;;;;;;4.81;100.29;;;;;;2670208;76;20307;-90
2023/04/05 09:40:17;;;;;;;;;;;5.08;100.23;;;;;;2670331;76;20321;-89
2023/04/05 09:43:45;;;;;;;;;;;5.53;99.34;;;;;;2670346;76;20307;-90
2023/04/05 09:47:13;;;;;;;;;;;5.72;98.67;;;;;;2670905;76;20455;-90
2023/04/05 09:50:41;;;;;;;;;;;5.94;98.18;;;;;;2670929;76;20440;-90
2023/04/05 09:54:09;;;;;;;;;;;6.04;98.10;;;;;;2670119;76;20445;-90
2023/04/05 09:57:37;;;;;;;;;;;6.14;97.48;;;;;;2670805;76;20411;-90
2023/04/05 10:01:06;;;;;;;;;;;6.23;97.13;;;;;;2670465;76;20415;-90
2023/04/05 10:04:34;;;;;;;;;;;6.42;96.25;;;;;;2669930;76;20423;-90
2023/04/05 10:08:03;;;;;;;;;;;6.69;96.08;;;;;;2670966;76;20444;-91
2023/04/05 10:11:31;;;;;;;;;;;6.88;95.73;;;;;;2670663;76;20421;-90
2023/04/05 10:14:59;;;;;;;;;;;7.01;95.33;;;;;;2670559;76;20411;-91
2023/04/05 10:18:27;;;;;;;;;;;6.90;95.39;;;;;;2670611;76;20907;-90
2023/04/05 10:21:55;;;;;;;;;;;6.96;95.18;;;;;;2670471;76;20682;-90
2023/04/05 10:25:24;;;;;;;;;;;7.10;94.23;;;;;;2670891;76;20425;-89
2023/04/05 10:28:52;;;;;;;;;;;7.54;94.50;;;;;;2670795;76;20420;-90
2023/04/05 10:32:21;;;;;;;;;;;8.29;95.01;;;;;;2670939;76;20532;-90
2023/04/05 10:35:49;;;;;;;;;;;7.97;94.62;;;;;;2670710;76;20464;-90
2023/04/05 10:39:17;;;;;;;;;;;7.50;95.10;;;;;;2670622;76;20312;-90
2023/04/05 10:42:45;;;;;;;;;;;6.90;95.39;;;;;;2670598;76;20762;-90
2023/04/05 10:46:13;;;;;;;;;;;6.85;95.55;;;;;;2669441;76;20438;-90
2023/04/05 10:49:41;;;;;;;;;;;6.39;95.01;;;;;;2670712;76;20326;-90
2023/04/05 10:53:10;;;;;;;;;;;6.20;95.62;;;;;;2671103;76;20432;-90
2023/04/05 10:56:38;;;;;;;;;;;6.13;96.07;;;;;;2670140;76;20314;-90
2023/04/05 11:00:06;;;;;;;;;;;5.98;96.10;;;;;;2669942;76;20331;-89
2023/04/05 11:03:34;;;;;;;;;;;6.25;96.30;;;;;;2670726;76;20397;-89
2023/04/05 11:07:02;;;;;;;;;;;7.05;96.26;;;;;;2670512;76;20828;-89
2023/04/05 11:10:31;;;;;;;;;;;7.61;95.44;;;;;;2670114;76;20427;-89
2023/04/05 11:13:59;;;;;;;;;;;8.19;94.51;;;;;;2670639;76;20448;-90
2023/04/05 11:17:27;;;;;;;;;;;8.58;93.42;;;;;;2671220;76;20440;-89
2023/04/05 11:20:55;;;;;;;;;;;8.60;92.46;;;;;;2670926;76;20298;-90
2023/04/05 11:24:23;;;;;;;;;;;8.67;92.58;;;;;;2671038;76;21663;-90
2023/04/05 11:27:51;;;;;;;;;;;8.39;91.81;;;;;;2670650;76;20812;-89
2023/04/05 11:31:21;;;;;;;;;;;8.34;91.85;;;;;;2670534;76;20344;-90
2023/04/05 11:34:50;;;;;;;;;;;8.08;91.98;;;;;;2670752;76;20723;-89
2023/04/05 11:38:18;;;;;;;;;;;8.01;92.44;;;;;;2670000;76;20555;-89
2023/04/05 11:41:46;;;;;;;;;;;7.94;93.08;;;;;;2670243;76;20894;-87
2023/04/05 11:45:14;;;;;;;;;;;7.63;93.21;;;;;;2669583;76;20517;-88
2023/04/05 11:48:45;;;;;;;;;;;7.44;92.77;;;;;;2670394;76;20933;-88
2023/04/05 11:52:13;;;;;;;;;;;7.42;92.79;;;;;;2670449;76;20429;-90
2023/04/05 11:55:41;;;;;;;;;;;7.45;92.72;;;;;;2670587;76;20421;-89
2023/04/05 11:59:09;;;;;;;;;;;7.60;92.31;;;;;;2671030;76;20421;-89
2023/04/05 12:02:37;;;;;;;;;;;8.11;92.41;;;;;;2670074;76;20449;-90
2023/04/05 12:06:06;;;;;;;;;;;8.11;91.98;;;;;;2670516;76;20719;-90
2023/04/05 12:09:34;;;;;;;;;;;8.28;91.46;;;;;;2670636;76;20950;-90
2023/04/05 12:13:03;;;;;;;;;;;8.28;91.85;;;;;;2670087;76;20474;-89
2023/04/05 12:16:31;;;;;;;;;;;8.09;91.36;;;;;;2670214;76;20414;-90
2023/04/05 12:19:59;;;;;;;;;;;8.05;91.29;;;;;;2670172;76;20878;-90
2023/04/05 12:23:27;;;;;;;;;;;7.90;92.14;;;;;;2670558;76;20421;-89
2023/04/05 12:26:55;;;;;;;;;;;7.62;92.27;;;;;;2670432;76;20437;-89
2023/04/05 12:30:23;;;;;;;;;;;7.48;92.20;;;;;;2671029;76;20436;-89
2023/04/05 12:33:51;;;;;;;;;;;7.42;91.99;;;;;;2671187;76;20473;-90
2023/04/05 12:37:19;;;;;;;;;;;7.54;91.53;;;;;;2670831;76;20441;-89
2023/04/05 12:40:47;;;;;;;;;;;7.74;91.96;;;;;;2671076;76;20422;-90
2023/04/05 12:44:15;;;;;;;;;;;7.74;91.85;;;;;;2672263;76;20448;-90
2023/04/05 12:47:44;;;;;;;;;;;7.90;91.81;;;;;;2671906;76;20492;-91
2023/04/05 12:51:17;;;;;;;;;;;8.37;91.67;;;;;;2671632;76;20459;-91
2023/04/05 12:54:48;;;;;;;;;;;8.73;90.89;;;;;;2671459;76;20314;-91
2023/04/05 12:58:26;;;;;;;;;;;9.17;90.23;;;;;;2671747;76;20347;-91
2023/04/05 13:01:53;;;;;;;;;;;9.52;89.62;;;;;;2672149;76;20308;-90
2023/04/05 13:05:23;;;;;;;;;;;9.55;89.69;;;;;;2671069;76;20472;-91
2023/04/05 13:09:02;;;;;;;;;;;9.52;89.70;;;;;;2671529;76;20925;-91
2023/04/05 13:12:29;;;;;;;;;;;9.44;89.30;;;;;;2670461;76;20423;-90
2023/04/05 13:16:00;;;;;;;;;;;9.17;89.43;;;;;;2671781;76;20482;-91
2023/04/05 13:19:33;;;;;;;;;;;9.11;88.14;;;;;;2672379;76;20474;-91
2023/04/05 13:22:59;;;;;;;;;;;9.57;89.10;;;;;;2672330;76;20369;-90
2023/04/05 13:26:35;;;;;;;;;;;9.63;88.65;;;;;;2671130;76;20345;-90
2023/04/05 13:30:03;;;;;;;;;;;9.89;88.48;;;;;;2670138;76;20321;-89
2023/04/05 13:33:37;;;;;;;;;;;9.86;89.00;;;;;;2671368;76;20574;-90
2023/04/05 13:37:04;;;;;;;;;;;9.64;89.19;;;;;;2671584;76;21112;-91
2023/04/05 13:40:33;;;;;;;;;;;8.83;87.32;;;;;;2671104;76;20511;-90
2023/04/05 13:44:06;;;;;;;;;;;9.35;87.84;;;;;;2670512;76;20339;-91
2023/04/05 13:47:35;;;;;;;;;;;9.50;88.18;;;;;;2670899;76;20353;-91
2023/04/05 13:51:08;;;;;;;;;;;9.31;88.66;;;;;;2672203;76;20893;-91
2023/04/05 13:54:39;;;;;;;;;;;9.14;89.30;;;;;;2671088;76;20305;-91
2023/04/05 13:58:10;;;;;;;;;;;9.00;89.90;;;;;;2671005;76;20354;-90
2023/04/05 14:01:41;;;;;;;;;;;8.73;89.96;;;;;;2670525;76;20338;-91
2023/04/05 14:05:15;;;;;;;;;;;8.55;89.70;;;;;;2670875;76;20377;-91
2023/04/05 14:08:45;;;;;;;;;;;8.57;89.76;;;;;;2670920;76;20949;-90
2023/04/05 14:12:25;;;;;;;;;;;8.68;90.05;;;;;;2671123;76;20445;-91
2023/04/05 14:15:49;;;;;;;;;;;8.62;89.67;;;;;;2671313;76;20987;-90
2023/04/05 14:19:18;;;;;;;;;;;8.65;89.70;;;;;;2671564;76;20495;-91
2023/04/05 14:22:46;;;;;;;;;;;8.68;89.50;;;;;;2671339;76;20461;-91
2023/04/05 14:26:15;;;;;;;;;;;8.72;88.80;;;;;;2670621;76;20435;-90
2023/04/05 14:29:44;;;;;;;;;;;9.00;89.28;;;;;;2671062;76;20458;-91
2023/04/05 14:33:13;;;;;;;;;;;9.25;89.64;;;;;;2671305;76;20358;-91
2023/04/05 14:36:41;;;;;;;;;;;9.29;88.86;;;;;;2671967;76;20448;-91
2023/04/05 14:40:12;;;;;;;;;;;9.33;88.28;;;;;;2671827;76;20471;-90
2023/04/05 14:43:41;;;;;;;;;;;9.48;88.70;;;;;;2671646;76;20451;-91
2023/04/05 14:47:10;;;;;;;;;;;9.30;88.59;;;;;;2671686;76;20442;-91
2023/04/05 14:50:38;;;;;;;;;;;9.38;88.86;;;;;;2671836;76;20461;-90
2023/04/05 14:54:06;;;;;;;;;;;9.41;88.76;;;;;;2670014;76;20462;-91
2023/04/05 14:57:34;;;;;;;;;;;9.53;89.03;;;;;;2671402;76;20456;-91
2023/04/05 15:01:03;;;;;;;;;;;10.71;89.50;;;;;;2671348;76;21020;-91
2023/04/05 15:04:32;;;;;;;;;;;10.62;87.29;;;;;;2669297;76;20338;-90
2023/04/05 15:08:00;;;;;;;;;;;9.61;86.56;;;;;;2668546;76;20433;-91
2023/04/05 15:11:28;;;;;;;;;;;13.01;86.54;;;;;;2670785;76;20453;-91
2023/04/05 15:15:00;;;;;;;;;;;16.84;84.48;;;;;;2668222;76;20453;-91
2023/04/05 15:18:32;;;;;;;;;;;20.87;79.01;;;;;;2668003;76;20455;-91
2023/04/05 15:22:00;;;;;;;;;;;23.18;74.64;;;;;;2670451;76;20306;-91
2023/04/05 15:25:28;;;;;;;;;;;24.97;73.96;;;;;;2671891;76;20379;-91
2023/04/05 15:29:00;;;;;;;;;;;24.71;70.57;;;;;;2672190;76;20294;-91
2023/04/05 15:32:37;;;;;;;;;;;24.16;70.44;;;;;;2672114;76;20366;-91
2023/04/05 15:36:11;;;;;;;;;;;24.54;71.37;;;;;;2672644;76;20443;-91
2023/04/05 15:39:36;;;;;;;;;;;25.20;70.32;;;;;;2670967;76;20438;-91
2023/04/05 15:43:12;;;;;;;;;;;25.36;68.56;;;;;;2669496;76;20484;-91
2023/04/05 15:46:47;;;;;;;;;;;25.66;66.94;;;;;;2671934;76;20481;-91
2023/04/05 15:50:15;;;;;;;;;;;24.74;62.40;;;;;;2671289;76;20320;-91
2023/04/05 15:53:49;;;;;;;;;;;25.77;62.30;;;;;;2671625;76;20345;-92
2023/04/05 15:57:18;;;;;;;;;;;26.76;62.48;;;;;;2671986;76;20354;-91
2023/04/05 16:00:49;;;;;;;;;;;26.11;61.76;;;;;;2671137;76;20817;-91
2023/04/05 16:04:18;;;;;;;;;;;25.28;62.15;;;;;;2670147;76;20451;-91
2023/04/05 16:07:54;;;;;;;;;;;25.05;61.89;;;;;;2669269;76;20689;-91
2023/04/05 16:11:24;;;;;;;;;;;25.68;61.82;;;;;;2669096;76;20459;-91
2023/04/05 16:14:59;;;;;;;;;;;26.06;60.90;;;;;;2672346;76;21039;-90
2023/04/05 16:18:28;;;;;;;;;;;26.43;60.31;;;;;;2669525;76;20436;-91
2023/04/05 16:21:58;;;;;;;;;;;26.50;59.60;;;;;;2670728;76;20767;-92
2023/04/05 16:25:27;;;;;;;;;;;25.52;58.77;;;;;;2668861;76;20342;-92
2023/04/05 16:29:05;;;;;;;;;;;24.20;60.86;;;;;;2669903;76;20526;-92
2023/04/05 16:32:34;;;;;;;;;;;24.63;59.72;;;;;;2669615;76;20452;-91
2023/04/05 16:36:05;;;;;;;;;;;24.53;58.89;;;;;;2667973;76;20463;-91
2023/04/05 16:39:43;;;;;;;;;;;24.41;58.89;;;;;;2669748;76;20440;-92
2023/04/05 16:43:10;;;;;;;;;;;24.01;58.41;;;;;;2670236;76;20443;-91
2023/04/05 16:46:44;;;;;;;;;;;23.54;57.80;;;;;;2669107;76;20474;-91
2023/04/05 16:50:14;;;;;;;;;;;22.70;57.77;;;;;;2668789;76;20471;-91
2023/04/05 16:53:43;;;;;;;;;;;22.02;58.43;;;;;;2669727;76;20941;-91
2023/04/05 16:57:12;;;;;;;;;;;21.62;59.27;;;;;;2669934;76;20437;-91
2023/04/05 17:00:40;;;;;;;;;;;20.96;60.07;;;;;;2668769;76;20764;-91
2023/04/05 17:04:09;;;;;;;;;;;19.95;61.02;;;;;;2668825;76;20618;-91
2023/04/05 17:07:47;;;;;;;;;;;18.99;61.79;;;;;;2668651;76;20458;-91
2023/04/05 17:11:16;;;;;;;;;;;18.05;62.31;;;;;;2668900;76;20449;-91
2023/04/05 17:14:47;;;;;;;;;;;17.47;63.13;;;;;;2669270;76;20793;-91
2023/04/05 17:18:16;;;;;;;;;;;13.89;63.88;;;;;;2669188;76;20893;-91
2023/04/05 17:21:46;;;;;;;;;;;11.25;68.37;;;;;;2669194;76;20461;-91
2023/04/05 17:25:16;;;;;;;;;;;9.82;71.86;;;;;;2670824;76;20431;-91
2023/04/05 17:28:47;;;;;;;;;;;8.83;74.22;;;;;;2669037;76;20473;-90
2023/04/05 17:32:15;;;;;;;;;;;8.17;75.79;;;;;;2669596;76;20470;-91
2023/04/05 17:35:43;;;;;;;;;;;7.65;76.70;;;;;;2669190;76;20423;-90
2023/04/05 17:39:11;;;;;;;;;;;7.22;77.62;;;;;;2669304;76;20440;-90
2023/04/05 17:42:40;;;;;;;;;;;6.86;78.05;;;;;;2669505;76;20425;-90
2023/04/05 17:46:12;;;;;;;;;;;6.58;78.47;;;;;;2669847;76;20486;-91
2023/04/05 17:49:38;;;;;;;;;;;6.27;78.82;;;;;;2669232;76;20939;-89
2023/04/05 17:53:06;;;;;;;;;;;6.00;79.49;;;;;;2670111;76;20477;-90
2023/04/05 17:56:37;;;;;;;;;;;5.77;80.23;;;;;;2669191;76;20450;-90
2023/04/05 18:00:05;;;;;;;;;;;5.52;80.81;;;;;;2669997;76;20482;-91
2023/04/05 18:03:33;;;;;;;;;;;5.32;81.17;;;;;;2668571;76;20462;-91
2023/04/05 18:07:01;;;;;;;;;;;5.16;81.79;;;;;;2669094;76;20448;-90
2023/04/05 18:10:29;;;;;;;;;;;4.97;82.36;;;;;;2669550;76;20431;-91
2023/04/05 18:13:58;;;;;;;;;;;4.86;83.26;;;;;;2669912;76;20494;-90
2023/04/05 18:17:26;;;;;;;;;;;4.71;83.30;;;;;;2669213;76;20427;-90
2023/04/05 18:20:55;;;;;;;;;;;4.57;83.28;;;;;;2669338;76;20427;-90
2023/04/05 18:24:28;;;;;;;;;;;4.41;83.32;;;;;;2669014;76;20453;-90
2023/04/05 18:27:53;;;;;;;;;;;4.27;83.30;;;;;;2669391;76;20472;-90
2023/04/05 18:31:22;;;;;;;;;;;4.10;83.81;;;;;;2670193;76;20442;-90
2023/04/05 18:34:50;;;;;;;;;;;3.93;83.90;;;;;;2670318;76;20403;-91
2023/04/05 18:38:18;;;;;;;;;;;3.83;84.10;;;;;;2670135;76;20307;-90
2023/04/05 18:41:46;;;;;;;;;;;3.72;84.33;;;;;;2671075;76;20360;-90
2023/04/05 18:45:15;;;;;;;;;;;3.65;84.64;;;;;;2671233;76;20460;-90
2023/04/05 18:48:46;;;;;;;;;;;3.60;84.80;;;;;;2671712;76;21203;-89
2023/04/05 18:52:16;;;;;;;;;;;3.59;84.93;;;;;;2672048;76;20462;-89
2023/04/05 18:55:56;;;;;;;;;;;3.60;85.10;;;;;;2671729;76;20438;-89
2023/04/05 18:59:25;;;;;;;;;;;3.56;85.29;;;;;;2671420;76;20412;-90
2023/04/05 19:02:53;;;;;;;;;;;3.55;85.71;;;;;;2671306;76;20354;-89
2023/04/05 19:06:21;;;;;;;;;;;3.48;86.09;;;;;;2671369;76;20431;-89
2023/04/05 19:09:49;;;;;;;;;;;3.39;86.45;;;;;;2670848;76;20325;-89
2023/04/05 19:13:17;;;;;;;;;;;3.29;86.73;;;;;;2670869;76;20435;-90
2023/04/05 19:16:45;;;;;;;;;;;3.14;86.96;;;;;;2670903;76;20949;-89
2023/04/05 19:20:13;;;;;;;;;;;3.02;87.20;;;;;;2671569;76;20916;-90
2023/04/05 19:23:41;;;;;;;;;;;2.91;87.41;;;;;;2671026;76;20892;-89
2023/04/05 19:27:10;;;;;;;;;;;2.78;87.61;;;;;;2671504;76;20476;-89
2023/04/05 19:30:39;;;;;;;;;;;2.66;87.77;;;;;;2671150;76;20457;-89
2023/04/05 19:34:07;;;;;;;;;;;2.57;87.88;;;;;;2671065;76;20994;-90
2023/04/05 19:37:35;;;;;;;;;;;2.46;88.02;;;;;;2669412;76;20450;-88
2023/04/05 19:41:05;;;;;;;;;;;2.41;88.25;;;;;;2670061;76;20453;-90
2023/04/05 19:44:33;;;;;;;;;;;2.35;88.44;;;;;;2669981;76;20468;-89
2023/04/05 19:48:01;;;;;;;;;;;2.28;88.70;;;;;;2670568;76;20502;-89
2023/04/05 19:51:30;;;;;;;;;;;2.22;88.93;;;;;;2668960;76;20442;-89
2023/04/05 19:54:58;;;;;;;;;;;2.19;89.14;;;;;;2669425;76;20460;-92
2023/04/05 19:58:26;;;;;;;;;;;2.08;89.42;;;;;;2668787;76;20452;-89
2023/04/05 20:01:55;;;;;;;;;;;2.02;89.64;;;;;;2669514;76;20449;-89
2023/04/05 20:05:23;;;;;;;;;;;1.93;89.83;;;;;;2670686;76;20434;-89
2023/04/05 20:08:51;;;;;;;;;;;1.85;89.99;;;;;;2671345;76;20449;-89
2023/04/05 20:12:21;;;;;;;;;;;1.80;90.26;;;;;;2670024;76;20441;-89
2023/04/05 20:15:49;;;;;;;;;;;1.69;90.48;;;;;;2674603;76;20458;-89
2023/04/05 20:19:21;;;;;;;;;;;1.60;90.63;;;;;;2671671;76;20994;-90
2023/04/05 20:23:00;;;;;;;;;;;1.53;90.92;;;;;;2671383;76;20456;-89
2023/04/05 20:26:29;;;;;;;;;;;1.47;91.15;;;;;;2670212;76;20436;-89